Terminal Aerodrome Forecast
Issued by NWS

Home | Current Version | Previous Version | Text Only | Print | Product List | Glossary On
Versions: 1 2 3 4 5 6 7 8 9 10 11 12 13 14 15 16 17 18 19
000
FTUS41 KBTV 231124
TAFSLK
TAF
KSLK 231124Z 2312/2412 VRB03KT P6SM SCT090 OVC120
     FM231500 18009KT P6SM -RA BKN025
     FM232100 19014G22KT 5SM -RA BR OVC015
     FM240700 26013KT P6SM VCSH BKN015=

USA.gov is the U.S. government's official web portal to all federal, state and local government web resources and services.